Карточка аэропорта UMKK

Внимание!
Информация на этой странице в стадии наполнения.
Если вы не увидели какой-то информации, или заметили неточность - пожалуйста сообщите нам!
Спасибо!
Команда RU-STAFF
Название аэропортаХраброво
Название аэропорта (англ.)Khrabrovo
Превышение43 ft. (13.1 m.)
Координаты54°53.4', 20°35.55'
Высота перехода4000ft
Эшелон переходаFL50 (QNH>=1013hPa); FL60 (QNH<1013hPa); FL50 (QNH<977hPa);
Коды ответчика6620-6637
Зона ОрВДКалининград РПИ (UMKK)
Данные METARUMKK 280500Z 32002MPS 0350 0300E R24/0500N FG VV002 05/05 Q1016 R24/290095 NOSIG RMK QBB070 OBST OBSC QFE761/1015
Проноз погоды (TAF)UMKK 280158Z 2803/2903 VRB01MPS 0400 FG VV001 TEMPO 2803/2809 1000 -RADZ BR BKN002 OVC013 FM280900 34004G09MPS 6000 -RA BKN004 OVC016 TEMPO 2809/2815 2500 -SHRA BKN003 BKN011CB BECMG 2821/2824 VRB01MPS
NOTAMshow/hide NOTAM
AWOS   TABLE

Информация о ВПП

ВПП Длина ВПП (м.) Покрытие Курс ВПП Частота ILS
063350Асфальтобетон60110.3
243350Асфальтобетон240109.5

Диспетчерские позиции

Позывной Наименование органа УВД Частота
UMKK_TWRКалининград-Вышка127.2
UMKK_APPКалининград-Подход126.0



Спутниковое изображение